Test XHTML 1.0 Strict Page for WU-History Testing
Station Historical Data
 
Daily Summary for October 01, 2014 Units:  Both    English   Metric
« Previous Day
Next Day »
Daily Weekly Monthly Yearly Custom
  Current: High: Low: Average:
Temperature: 65.5 °F /  18.6 °C 65.5 °F /  18.6 °C 50.9 °F /  10.5 °C 58.1 °F /  14.5 °C
Dew Point: 59.8 °F /  15.4 °C 60.5 °F /  15.8 °C 47.9 °F /  8.8 °C 55.7 °F /  13.2 °C
Humidity: 82% 100% 67% 92%
Wind Speed: 6.3mph /  10.1km/h 9.2mph /  14.8km/h - 2.8mph /  4.5km/h
Wind Gust: 6.3mph /  10.1km/h 9.2mph /  14.8km/h - -
WindWNW - - WSW
Pressure: 30.26 in /  1024.6 hPa 30.26 in /  1024.6 hPa 30.14 in /  1020.5 hPa -
Precipitation: 0.00 in /  0 mm      
Historical Graphs
 
 
Weather-Above Climate History
Untitled
Tabular Data for October 01, 2014
Time Temperature Dew Point Pressure Wind Wind Speed Wind Gust Humidity Rainfall Rate (Hourly)
00:04 58.5 °F /  14.7 °C 58.5 °F /  14.7 °C 30.14in /  1020.5hPa SSW 4.6mph /  7.4km/h 4.6mph /  7.4km/h 100% 0.00in /  0cm
00:09 58.8 °F /  14.9 °C 58.8 °F /  14.9 °C 30.14in /  1020.5hPa South 5.8mph /  9.3km/h 5.8mph /  9.3km/h 100% 0.00in /  0cm
00:14 58.8 °F /  14.9 °C 58.8 °F /  14.9 °C 30.14in /  1020.5hPa SSE 5.8mph /  9.3km/h 5.8mph /  9.3km/h 100% 0.00in /  0cm
00:19 58.8 °F /  14.9 °C 58.8 °F /  14.9 °C 30.14in /  1020.5hPa SSW 1.2mph /  1.9km/h 1.2mph /  1.9km/h 100% 0.00in /  0cm
00:24 58.8 °F /  14.9 °C 58.8 °F /  14.9 °C 30.15in /  1020.9hPa South 3.7mph /  6km/h 3.7mph /  6km/h 100% 0.00in /  0cm
00:27 58.8 °F /  14.9 °C 58.5 °F /  14.7 °C 30.14in /  1020.5hPa SSE 5.8mph /  9.3km/h 5.8mph /  9.3km/h 99% 0.00in /  0cm
00:32 59.0 °F /  15 °C 59.0 °F /  15 °C 30.15in /  1020.9hPa SSE 5.2mph /  8.4km/h 5.2mph /  8.4km/h 100% 0.00in /  0cm
00:37 59.0 °F /  15 °C 59.0 °F /  15 °C 30.14in /  1020.5hPa SSW 4.6mph /  7.4km/h 4.6mph /  7.4km/h 100% 0.00in /  0cm
00:42 59.0 °F /  15 °C 58.7 °F /  14.8 °C 30.14in /  1020.5hPa SSW 4.6mph /  7.4km/h 4.6mph /  7.4km/h 99% 0.00in /  0cm
00:47 59.0 °F /  15 °C 59.0 °F /  15 °C 30.14in /  1020.5hPa WNW 3.5mph /  5.6km/h 3.5mph /  5.6km/h 100% 0.00in /  0cm
00:52 58.8 °F /  14.9 °C 58.8 °F /  14.9 °C 30.14in /  1020.5hPa SSW 5.7mph /  9.2km/h 5.7mph /  9.2km/h 100% 0.00in /  0cm
00:58 58.8 °F /  14.9 °C 58.8 °F /  14.9 °C 30.14in /  1020.5hPa WSW 3.5mph /  5.6km/h 3.5mph /  5.6km/h 100% 0.00in /  0cm
01:03 58.8 °F /  14.9 °C 58.5 °F /  14.7 °C 30.14in /  1020.5hPa SSW 5.8mph /  9.3km/h 5.8mph /  9.3km/h 99% 0.00in /  0cm
01:08 58.8 °F /  14.9 °C 47.9 °F /  8.8 °C 30.15in /  1020.9hPa WNW 3.5mph /  5.6km/h 3.5mph /  5.6km/h 67% 0.00in /  0cm
01:14 59.0 °F /  15 °C 59.0 °F /  15 °C 30.14in /  1020.5hPa WNW 3.5mph /  5.6km/h 3.5mph /  5.6km/h 100% 0.00in /  0cm
01:20 59.2 °F /  15.1 °C 58.9 °F /  14.9 °C 30.15in /  1020.9hPa SE 3.5mph /  5.6km/h   99% 0.00in /  0cm
01:26 59.2 °F /  15.1 °C 58.9 °F /  14.9 °C 30.15in /  1020.9hPa ESE 0.5mph /  0.8km/h 0.5mph /  0.8km/h 99% 0.00in /  0cm
01:31 59.2 °F /  15.1 °C 58.9 °F /  14.9 °C 30.15in /  1020.9hPa South 1.2mph /  1.9km/h 1.2mph /  1.9km/h 99% 0.00in /  0cm
01:36 59.2 °F /  15.1 °C 58.9 °F /  14.9 °C 30.15in /  1020.9hPa WSW 3.2mph /  5.1km/h 3.2mph /  5.1km/h 99% 0.00in /  0cm
01:41 59.2 °F /  15.1 °C 58.9 °F /  14.9 °C 30.15in /  1020.9hPa Calm     99% 0.00in /  0cm
01:46 59.2 °F /  15.1 °C 58.9 °F /  14.9 °C 30.15in /  1020.9hPa SSE 0.9mph /  1.4km/h 0.9mph /  1.4km/h 99% 0.00in /  0cm
01:51 59.4 °F /  15.2 °C 59.1 °F /  15.1 °C 30.15in /  1020.9hPa SE 2.3mph /  3.7km/h 2.3mph /  3.7km/h 99% 0.00in /  0cm
01:56 59.2 °F /  15.1 °C 58.9 °F /  14.9 °C 30.15in /  1020.9hPa SSE 1.4mph /  2.3km/h 1.4mph /  2.3km/h 99% 0.00in /  0cm
02:01 59.2 °F /  15.1 °C 58.9 °F /  14.9 °C 30.15in /  1020.9hPa Calm     99% 0.00in /  0cm
02:02 59.0 °F /  15 °C 58.7 °F /  14.8 °C 30.15in /  1020.9hPa WNW 1.5mph /  2.4km/h 1.5mph /  2.4km/h 99% 0.00in /  0cm
02:07 59.0 °F /  15 °C 58.7 °F /  14.8 °C 30.14in /  1020.5hPa East 6.9mph /  11.1km/h 6.9mph /  11.1km/h 99% 0.00in /  0cm
02:12 58.8 °F /  14.9 °C 58.5 °F /  14.7 °C 30.15in /  1020.9hPa Calm     99% 0.00in /  0cm
02:17 58.6 °F /  14.8 °C 58.4 °F /  14.7 °C 30.15in /  1020.9hPa West 0.5mph /  0.8km/h 0.5mph /  0.8km/h 99% 0.00in /  0cm
02:22 58.6 °F /  14.8 °C 58.1 °F /  14.5 °C 30.15in /  1020.9hPa WNW 2.3mph /  3.7km/h 2.3mph /  3.7km/h 98% 0.00in /  0cm
02:27 58.5 °F /  14.7 °C 58.2 °F /  14.6 °C 30.15in /  1020.9hPa Calm     99% 0.00in /  0cm
02:32 58.3 °F /  14.6 °C 58.0 °F /  14.4 °C 30.15in /  1020.9hPa West 5.6mph /  9km/h 5.6mph /  9km/h 99% 0.00in /  0cm
02:37 58.5 °F /  14.7 °C 57.9 °F /  14.4 °C 30.16in /  1021.2hPa West 3.5mph /  5.6km/h 3.5mph /  5.6km/h 98% 0.00in /  0cm
02:42 58.3 °F /  14.6 °C 57.4 °F /  14.1 °C 30.15in /  1020.9hPa ESE 1.5mph /  2.4km/h 1.5mph /  2.4km/h 97% 0.00in /  0cm
02:47 58.1 °F /  14.5 °C 57.5 °F /  14.2 °C 30.16in /  1021.2hPa ESE 1.5mph /  2.4km/h 1.5mph /  2.4km/h 98% 0.00in /  0cm
02:52 58.1 °F /  14.5 °C 57.5 °F /  14.2 °C 30.16in /  1021.2hPa Calm     98% 0.00in /  0cm
02:57 57.9 °F /  14.4 °C 57.1 °F /  13.9 °C 30.16in /  1021.2hPa SSW 2.3mph /  3.7km/h   97% 0.00in /  0cm
03:02 57.9 °F /  14.4 °C 57.1 °F /  13.9 °C 30.16in /  1021.2hPa WSW 5.8mph /  9.3km/h 5.8mph /  9.3km/h 97% 0.00in /  0cm
03:07 57.9 °F /  14.4 °C 56.5 °F /  13.6 °C 30.16in /  1021.2hPa North 0.5mph /  0.8km/h 0.5mph /  0.8km/h 95% 0.00in /  0cm
03:12 57.9 °F /  14.4 °C 56.8 °F /  13.8 °C 30.15in /  1020.9hPa West 4.6mph /  7.4km/h 4.6mph /  7.4km/h 96% 0.00in /  0cm
03:17 57.9 °F /  14.4 °C 56.8 °F /  13.8 °C 30.15in /  1020.9hPa WNW 2.3mph /  3.7km/h 2.3mph /  3.7km/h 96% 0.00in /  0cm
03:23 57.6 °F /  14.2 °C 56.4 °F /  13.6 °C 30.16in /  1021.2hPa WNW 6.3mph /  10.1km/h 6.3mph /  10.1km/h 96% 0.00in /  0cm
03:28 57.6 °F /  14.2 °C 56.1 °F /  13.4 °C 30.15in /  1020.9hPa NNW 2.3mph /  3.7km/h 2.3mph /  3.7km/h 95% 0.00in /  0cm
03:33 57.6 °F /  14.2 °C 56.1 °F /  13.4 °C 30.15in /  1020.9hPa West 1.2mph /  1.9km/h 1.2mph /  1.9km/h 95% 0.00in /  0cm
03:38 57.4 °F /  14.1 °C 56.0 °F /  13.3 °C 30.15in /  1020.9hPa WNW 4.6mph /  7.4km/h 4.6mph /  7.4km/h 95% 0.00in /  0cm
03:43 57.4 °F /  14.1 °C 56.0 °F /  13.3 °C 30.16in /  1021.2hPa SSE 1.2mph /  1.9km/h   95% 0.00in /  0cm
03:48 57.0 °F /  13.9 °C 55.6 °F /  13.1 °C 30.15in /  1020.9hPa Calm     95% 0.00in /  0cm
03:53 56.7 °F /  13.7 °C 55.2 °F /  12.9 °C 30.15in /  1020.9hPa Calm     95% 0.00in /  0cm
03:58 56.5 °F /  13.6 °C 55.4 °F /  13 °C 30.16in /  1021.2hPa Calm     96% 0.00in /  0cm
04:03 56.5 °F /  13.6 °C 55.4 °F /  13 °C 30.15in /  1020.9hPa West 3.7mph /  6km/h 3.7mph /  6km/h 96% 0.00in /  0cm
04:08 56.5 °F /  13.6 °C 55.4 °F /  13 °C 30.15in /  1020.9hPa West 3.5mph /  5.6km/h 3.5mph /  5.6km/h 96% 0.00in /  0cm
04:09 56.7 °F /  13.7 °C 55.5 °F /  13.1 °C 30.15in /  1020.9hPa NW 4.6mph /  7.4km/h 4.6mph /  7.4km/h 96% 0.00in /  0cm
04:14 56.7 °F /  13.7 °C 55.5 °F /  13.1 °C 30.15in /  1020.9hPa WNW 2.8mph /  4.5km/h 2.8mph /  4.5km/h 96% 0.00in /  0cm
04:19 56.7 °F /  13.7 °C 55.5 °F /  13.1 °C 30.15in /  1020.9hPa WNW 5.8mph /  9.3km/h 5.8mph /  9.3km/h 96% 0.00in /  0cm
04:24 56.7 °F /  13.7 °C 55.5 °F /  13.1 °C 30.15in /  1020.9hPa NW 5.8mph /  9.3km/h 5.8mph /  9.3km/h 96% 0.00in /  0cm
04:29 56.7 °F /  13.7 °C 55.2 °F /  12.9 °C 30.15in /  1020.9hPa NW 4.6mph /  7.4km/h 4.6mph /  7.4km/h 95% 0.00in /  0cm
04:34 56.7 °F /  13.7 °C 55.2 °F /  12.9 °C 30.17in /  1021.6hPa WNW 2.3mph /  3.7km/h 2.3mph /  3.7km/h 95% 0.00in /  0cm
04:39 56.7 °F /  13.7 °C 55.2 °F /  12.9 °C 30.16in /  1021.2hPa WNW 5.8mph /  9.3km/h 5.8mph /  9.3km/h 95% 0.00in /  0cm
04:44 56.7 °F /  13.7 °C 55.2 °F /  12.9 °C 30.16in /  1021.2hPa SSW 4.6mph /  7.4km/h 4.6mph /  7.4km/h 95% 0.00in /  0cm
04:49 56.5 °F /  13.6 °C 55.1 °F /  12.8 °C 30.16in /  1021.2hPa West 2.8mph /  4.5km/h 2.8mph /  4.5km/h 95% 0.00in /  0cm
04:54 56.7 °F /  13.7 °C 55.0 °F /  12.8 °C 30.16in /  1021.2hPa WSW 4.6mph /  7.4km/h 4.6mph /  7.4km/h 94% 0.00in /  0cm
04:59 56.7 °F /  13.7 °C 54.7 °F /  12.6 °C 30.17in /  1021.6hPa West 9.2mph /  14.8km/h 9.2mph /  14.8km/h 93% 0.00in /  0cm
05:04 56.7 °F /  13.7 °C 54.7 °F /  12.6 °C 30.17in /  1021.6hPa SSE 5.8mph /  9.3km/h 5.8mph /  9.3km/h 93% 0.00in /  0cm
05:09 56.7 °F /  13.7 °C 54.7 °F /  12.6 °C 30.17in /  1021.6hPa West 6.9mph /  11.1km/h 6.9mph /  11.1km/h 93% 0.00in /  0cm
05:14 56.7 °F /  13.7 °C 54.4 °F /  12.4 °C 30.17in /  1021.6hPa NW 4.6mph /  7.4km/h 4.6mph /  7.4km/h 92% 0.00in /  0cm
05:19 56.7 °F /  13.7 °C 54.4 °F /  12.4 °C 30.17in /  1021.6hPa ESE 2.3mph /  3.7km/h   92% 0.00in /  0cm
05:24 56.3 °F /  13.5 °C 54.0 °F /  12.2 °C 30.17in /  1021.6hPa SSE 3.2mph /  5.1km/h 3.2mph /  5.1km/h 92% 0.00in /  0cm
05:29 56.1 °F /  13.4 °C 54.1 °F /  12.3 °C 30.17in /  1021.6hPa NNW 0.5mph /  0.8km/h 0.5mph /  0.8km/h 93% 0.00in /  0cm
05:34 55.8 °F /  13.2 °C 53.8 °F /  12.1 °C 30.17in /  1021.6hPa Calm     93% 0.00in /  0cm
05:39 55.4 °F /  13 °C 53.7 °F /  12.1 °C 30.17in /  1021.6hPa Calm     94% 0.00in /  0cm
05:44 55.4 °F /  13 °C 53.7 °F /  12.1 °C 30.17in /  1021.6hPa Calm     94% 0.00in /  0cm
05:49 55.4 °F /  13 °C 53.7 °F /  12.1 °C 30.17in /  1021.6hPa Calm     94% 0.00in /  0cm
05:54 55.4 °F /  13 °C 53.4 °F /  11.9 °C 30.17in /  1021.6hPa Calm     93% 0.00in /  0cm
05:59 54.9 °F /  12.7 °C 53.2 °F /  11.8 °C 30.17in /  1021.6hPa West 2.3mph /  3.7km/h 2.3mph /  3.7km/h 94% 0.00in /  0cm
06:04 54.9 °F /  12.7 °C 53.5 °F /  11.9 °C 30.17in /  1021.6hPa Calm     95% 0.00in /  0cm
06:09 54.7 °F /  12.6 °C 53.0 °F /  11.7 °C 30.17in /  1021.6hPa WSW 0.4mph /  0.6km/h 0.4mph /  0.6km/h 94% 0.00in /  0cm
06:14 54.3 °F /  12.4 °C 52.9 °F /  11.6 °C 30.17in /  1021.6hPa WNW 0.5mph /  0.8km/h 0.5mph /  0.8km/h 95% 0.00in /  0cm
06:19 54.1 °F /  12.3 °C 52.7 °F /  11.5 °C 30.17in /  1021.6hPa Calm     95% 0.00in /  0cm
06:24 53.8 °F /  12.1 °C 52.4 °F /  11.3 °C 30.17in /  1021.6hPa Calm     95% 0.00in /  0cm
06:29 53.4 °F /  11.9 °C 52.0 °F /  11.1 °C 30.17in /  1021.6hPa Calm     95% 0.00in /  0cm
06:34 52.9 °F /  11.6 °C 51.5 °F /  10.8 °C 30.17in /  1021.6hPa Calm     95% 0.00in /  0cm
06:39 52.7 °F /  11.5 °C 51.6 °F /  10.9 °C 30.17in /  1021.6hPa Calm     96% 0.00in /  0cm
06:44 52.2 °F /  11.2 °C 51.3 °F /  10.7 °C 30.17in /  1021.6hPa Calm     97% 0.00in /  0cm
06:49 51.8 °F /  11 °C 50.4 °F /  10.2 °C 30.18in /  1021.9hPa Calm     95% 0.00in /  0cm
06:52 51.6 °F /  10.9 °C 50.5 °F /  10.3 °C 30.18in /  1021.9hPa Calm     96% 0.00in /  0cm
06:57 51.3 °F /  10.7 °C 50.4 °F /  10.2 °C 30.18in /  1021.9hPa Calm     97% 0.00in /  0cm
07:02 51.1 °F /  10.6 °C 50.3 °F /  10.2 °C 30.18in /  1021.9hPa Calm     97% 0.00in /  0cm
07:07 50.9 °F /  10.5 °C 50.1 °F /  10.1 °C 30.18in /  1021.9hPa Calm     97% 0.00in /  0cm
07:12 51.1 °F /  10.6 °C 50.3 °F /  10.2 °C 30.18in /  1021.9hPa Calm     97% 0.00in /  0cm
07:17 51.3 °F /  10.7 °C 50.4 °F /  10.2 °C 30.18in /  1021.9hPa Calm     97% 0.00in /  0cm
07:22 51.6 °F /  10.9 °C 51.1 °F /  10.6 °C 30.18in /  1021.9hPa Calm     98% 0.00in /  0cm
07:27 52.0 °F /  11.1 °C 51.4 °F /  10.8 °C 30.18in /  1021.9hPa Calm     98% 0.00in /  0cm
07:32 52.2 °F /  11.2 °C 51.6 °F /  10.9 °C 30.19in /  1022.2hPa Calm     98% 0.00in /  0cm
07:37 52.3 °F /  11.3 °C 51.5 °F /  10.8 °C 30.19in /  1022.2hPa Calm     97% 0.00in /  0cm
07:42 52.5 °F /  11.4 °C 52.0 °F /  11.1 °C 30.19in /  1022.2hPa Calm     98% 0.00in /  0cm
07:45 52.7 °F /  11.5 °C 52.2 °F /  11.2 °C 30.19in /  1022.2hPa Calm     98% 0.00in /  0cm
07:50 52.3 °F /  11.3 °C 51.8 °F /  11 °C 30.19in /  1022.2hPa Calm     98% 0.00in /  0cm
07:55 52.3 °F /  11.3 °C 51.8 °F /  11 °C 30.19in /  1022.2hPa Calm     98% 0.00in /  0cm
08:00 52.5 °F /  11.4 °C 52.2 °F /  11.2 °C 30.19in /  1022.2hPa Calm     99% 0.00in /  0cm
08:05 52.5 °F /  11.4 °C 52.2 °F /  11.2 °C 30.19in /  1022.2hPa Calm     99% 0.00in /  0cm
08:10 52.3 °F /  11.3 °C 51.8 °F /  11 °C 30.19in /  1022.2hPa Calm     98% 0.00in /  0cm
08:15 52.3 °F /  11.3 °C 52.1 °F /  11.2 °C 30.19in /  1022.2hPa Calm     99% 0.00in /  0cm
08:20 52.2 °F /  11.2 °C 51.6 °F /  10.9 °C 30.20in /  1022.6hPa Calm     98% 0.00in /  0cm
08:25 52.3 °F /  11.3 °C 51.8 °F /  11 °C 30.20in /  1022.6hPa Calm     98% 0.00in /  0cm
08:30 52.5 °F /  11.4 °C 52.2 °F /  11.2 °C 30.20in /  1022.6hPa WSW 2.3mph /  3.7km/h   99% 0.00in /  0cm
08:35 52.7 °F /  11.5 °C 52.4 °F /  11.3 °C 30.20in /  1022.6hPa Calm     99% 0.00in /  0cm
08:40 52.9 °F /  11.6 °C 52.3 °F /  11.3 °C 30.20in /  1022.6hPa NW 3.7mph /  6km/h 3.7mph /  6km/h 98% 0.00in /  0cm
08:45 53.1 °F /  11.7 °C 52.5 °F /  11.4 °C 30.20in /  1022.6hPa Calm     98% 0.00in /  0cm
08:47 53.4 °F /  11.9 °C 52.9 °F /  11.6 °C 30.21in /  1022.9hPa Calm     98% 0.00in /  0cm
08:52 53.6 °F /  12 °C 53.0 °F /  11.7 °C 30.21in /  1022.9hPa Calm     98% 0.00in /  0cm
08:57 54.1 °F /  12.3 °C 53.6 °F /  12 °C 30.21in /  1022.9hPa Calm     98% 0.00in /  0cm
09:02 54.3 °F /  12.4 °C 53.5 °F /  11.9 °C 30.21in /  1022.9hPa WSW 4.2mph /  6.8km/h 4.2mph /  6.8km/h 97% 0.00in /  0cm
09:07 54.7 °F /  12.6 °C 54.1 °F /  12.3 °C 30.21in /  1022.9hPa WNW 4.6mph /  7.4km/h 4.6mph /  7.4km/h 98% 0.00in /  0cm
09:12 55.2 °F /  12.9 °C 54.4 °F /  12.4 °C 30.21in /  1022.9hPa West 2.3mph /  3.7km/h   97% 0.00in /  0cm
09:17 55.4 °F /  13 °C 54.3 °F /  12.4 °C 30.21in /  1022.9hPa West 5.8mph /  9.3km/h 5.8mph /  9.3km/h 96% 0.00in /  0cm
09:22 55.8 °F /  13.2 °C 54.3 °F /  12.4 °C 30.21in /  1022.9hPa WSW 2.3mph /  3.7km/h   95% 0.00in /  0cm
09:27 55.9 °F /  13.3 °C 54.5 °F /  12.5 °C 30.21in /  1022.9hPa West 1.2mph /  1.9km/h 1.2mph /  1.9km/h 95% 0.00in /  0cm
09:32 55.9 °F /  13.3 °C 54.2 °F /  12.3 °C 30.21in /  1022.9hPa WSW 2.3mph /  3.7km/h 2.3mph /  3.7km/h 94% 0.00in /  0cm
09:37 56.1 °F /  13.4 °C 54.4 °F /  12.4 °C 30.21in /  1022.9hPa WSW 1.5mph /  2.4km/h 1.5mph /  2.4km/h 94% 0.00in /  0cm
09:42 56.7 °F /  13.7 °C 54.7 °F /  12.6 °C 30.22in /  1023.2hPa WNW 4.6mph /  7.4km/h 4.6mph /  7.4km/h 93% 0.00in /  0cm
09:47 57.2 °F /  14 °C 54.6 °F /  12.6 °C 30.21in /  1022.9hPa South 1.4mph /  2.3km/h 1.4mph /  2.3km/h 91% 0.00in /  0cm
09:52 57.9 °F /  14.4 °C 55.3 °F /  12.9 °C 30.21in /  1022.9hPa West 6.9mph /  11.1km/h 6.9mph /  11.1km/h 91% 0.00in /  0cm
09:57 58.5 °F /  14.7 °C 55.8 °F /  13.2 °C 30.21in /  1022.9hPa WNW 7.7mph /  12.4km/h 7.7mph /  12.4km/h 91% 0.00in /  0cm
10:02 58.3 °F /  14.6 °C 55.1 °F /  12.8 °C 30.22in /  1023.2hPa WNW 0.9mph /  1.4km/h 0.9mph /  1.4km/h 89% 0.00in /  0cm
10:07 58.1 °F /  14.5 °C 54.9 °F /  12.7 °C 30.21in /  1022.9hPa NW 5.9mph /  9.5km/h 5.9mph /  9.5km/h 89% 0.00in /  0cm
10:12 58.1 °F /  14.5 °C 54.6 °F /  12.6 °C 30.22in /  1023.2hPa WNW 8.2mph /  13.2km/h 8.2mph /  13.2km/h 88% 0.00in /  0cm
10:17 58.5 °F /  14.7 °C 54.9 °F /  12.7 °C 30.22in /  1023.2hPa WNW 5.4mph /  8.7km/h 5.4mph /  8.7km/h 88% 0.00in /  0cm
10:22 58.5 °F /  14.7 °C 54.9 °F /  12.7 °C 30.22in /  1023.2hPa Calm     88% 0.00in /  0cm
10:27 58.8 °F /  14.9 °C 55.0 °F /  12.8 °C 30.22in /  1023.2hPa West 4.9mph /  7.9km/h 4.9mph /  7.9km/h 87% 0.00in /  0cm
10:32 59.0 °F /  15 °C 55.1 °F /  12.8 °C 30.22in /  1023.2hPa Calm     87% 0.00in /  0cm
10:37 59.4 °F /  15.2 °C 55.5 °F /  13.1 °C 30.22in /  1023.2hPa NNW 4.9mph /  7.9km/h 4.9mph /  7.9km/h 87% 0.00in /  0cm
10:42 59.7 °F /  15.4 °C 55.5 °F /  13.1 °C 30.23in /  1023.6hPa SSW 3.5mph /  5.6km/h 3.5mph /  5.6km/h 86% 0.00in /  0cm
10:47 59.7 °F /  15.4 °C 55.2 °F /  12.9 °C 30.22in /  1023.2hPa SE 3.5mph /  5.6km/h 3.5mph /  5.6km/h 85% 0.00in /  0cm
10:49 59.7 °F /  15.4 °C 54.9 °F /  12.7 °C 30.23in /  1023.6hPa West 2.3mph /  3.7km/h 2.3mph /  3.7km/h 84% 0.00in /  0cm
10:54 59.5 °F /  15.3 °C 55.0 °F /  12.8 °C 30.23in /  1023.6hPa WNW 6.9mph /  11.1km/h 6.9mph /  11.1km/h 85% 0.00in /  0cm
10:59 59.9 °F /  15.5 °C 55.4 °F /  13 °C 30.23in /  1023.6hPa SSW 5.4mph /  8.7km/h 5.4mph /  8.7km/h 85% 0.00in /  0cm
11:04 59.9 °F /  15.5 °C 55.4 °F /  13 °C 30.22in /  1023.2hPa SW 3.5mph /  5.6km/h 3.5mph /  5.6km/h 85% 0.00in /  0cm
11:09 59.9 °F /  15.5 °C 55.1 °F /  12.8 °C 30.22in /  1023.2hPa South 3.5mph /  5.6km/h 3.5mph /  5.6km/h 84% 0.00in /  0cm
11:14 59.9 °F /  15.5 °C 55.4 °F /  13 °C 30.23in /  1023.6hPa North 3.5mph /  5.6km/h 3.5mph /  5.6km/h 85% 0.00in /  0cm
11:19 60.3 °F /  15.7 °C 55.4 °F /  13 °C 30.23in /  1023.6hPa NW 5.8mph /  9.3km/h   84% 0.00in /  0cm
11:24 60.4 °F /  15.8 °C 55.6 °F /  13.1 °C 30.23in /  1023.6hPa SSW 8.1mph /  13km/h 8.1mph /  13km/h 84% 0.00in /  0cm
11:29 60.8 °F /  16 °C 55.6 °F /  13.1 °C 30.23in /  1023.6hPa West 7.5mph /  12.1km/h 7.5mph /  12.1km/h 83% 0.00in /  0cm
11:34 60.6 °F /  15.9 °C 55.4 °F /  13 °C 30.23in /  1023.6hPa WNW 8.2mph /  13.2km/h 8.2mph /  13.2km/h 83% 0.00in /  0cm
11:39 61.2 °F /  16.2 °C 55.6 °F /  13.1 °C 30.23in /  1023.6hPa West 5.8mph /  9.3km/h 5.8mph /  9.3km/h 82% 0.00in /  0cm
11:44 61.5 °F /  16.4 °C 56.0 °F /  13.3 °C 30.23in /  1023.6hPa WSW 5.9mph /  9.5km/h 5.9mph /  9.5km/h 82% 0.00in /  0cm
11:49 61.5 °F /  16.4 °C 56.0 °F /  13.3 °C 30.23in /  1023.6hPa WNW 3.5mph /  5.6km/h 3.5mph /  5.6km/h 82% 0.00in /  0cm
11:54 61.7 °F /  16.5 °C 56.5 °F /  13.6 °C 30.23in /  1023.6hPa NW 5.8mph /  9.3km/h 5.8mph /  9.3km/h 83% 0.00in /  0cm
11:59 61.5 °F /  16.4 °C 56.0 °F /  13.3 °C 30.23in /  1023.6hPa WNW 6.9mph /  11.1km/h 6.9mph /  11.1km/h 82% 0.00in /  0cm
12:04 62.4 °F /  16.9 °C 56.5 °F /  13.6 °C 30.23in /  1023.6hPa NNE 5.6mph /  9km/h 5.6mph /  9km/h 81% 0.00in /  0cm
12:09 63.0 °F /  17.2 °C 56.7 °F /  13.7 °C 30.24in /  1023.9hPa WSW 2.0mph /  3.2km/h 2.0mph /  3.2km/h 80% 0.00in /  0cm
12:14 63.5 °F /  17.5 °C 56.5 °F /  13.6 °C 30.24in /  1023.9hPa WSW 8.1mph /  13km/h 8.1mph /  13km/h 78% 0.00in /  0cm
12:19 64.2 °F /  17.9 °C 56.9 °F /  13.8 °C 30.24in /  1023.9hPa West 3.9mph /  6.3km/h 3.9mph /  6.3km/h 77% 0.00in /  0cm
12:24 64.6 °F /  18.1 °C 56.8 °F /  13.8 °C 30.25in /  1024.3hPa SE 5.8mph /  9.3km/h 5.8mph /  9.3km/h 76% 0.00in /  0cm
12:30 64.4 °F /  18 °C 56.7 °F /  13.7 °C 30.25in /  1024.3hPa West 6.8mph /  10.9km/h 6.8mph /  10.9km/h 76% 0.00in /  0cm
12:35 64.2 °F /  17.9 °C 56.9 °F /  13.8 °C 30.25in /  1024.3hPa WSW 1.1mph /  1.8km/h 1.1mph /  1.8km/h 77% 0.00in /  0cm
12:40 63.9 °F /  17.7 °C 56.9 °F /  13.8 °C 30.25in /  1024.3hPa NW 2.2mph /  3.5km/h 2.2mph /  3.5km/h 78% 0.00in /  0cm
12:45 63.9 °F /  17.7 °C 57.2 °F /  14 °C 30.25in /  1024.3hPa West 3.5mph /  5.6km/h 3.5mph /  5.6km/h 79% 0.00in /  0cm
12:50 63.9 °F /  17.7 °C 57.2 °F /  14 °C 30.25in /  1024.3hPa WSW 3.2mph /  5.1km/h 3.2mph /  5.1km/h 79% 0.00in /  0cm
12:55 64.2 °F /  17.9 °C 56.9 °F /  13.8 °C 30.25in /  1024.3hPa West 2.3mph /  3.7km/h 2.3mph /  3.7km/h 77% 0.00in /  0cm
13:00 64.0 °F /  17.8 °C 57.0 °F /  13.9 °C 30.25in /  1024.3hPa Calm     78% 0.00in /  0cm
13:05 63.5 °F /  17.5 °C 56.5 °F /  13.6 °C 30.25in /  1024.3hPa Calm     78% 0.00in /  0cm
13:10 63.3 °F /  17.4 °C 56.7 °F /  13.7 °C 30.25in /  1024.3hPa SW 2.5mph /  4km/h 2.5mph /  4km/h 79% 0.00in /  0cm
13:15 63.5 °F /  17.5 °C 57.2 °F /  14 °C 30.25in /  1024.3hPa West 3.9mph /  6.3km/h 3.9mph /  6.3km/h 80% 0.00in /  0cm
13:20 64.0 °F /  17.8 °C 57.7 °F /  14.3 °C 30.25in /  1024.3hPa SW 6.9mph /  11.1km/h 6.9mph /  11.1km/h 80% 0.00in /  0cm
13:25 64.2 °F /  17.9 °C 58.3 °F /  14.6 °C 30.25in /  1024.3hPa Calm     81% 0.00in /  0cm
13:30 64.4 °F /  18 °C 58.1 °F /  14.5 °C 30.25in /  1024.3hPa West 2.2mph /  3.5km/h 2.2mph /  3.5km/h 80% 0.00in /  0cm
13:35 63.9 °F /  17.7 °C 57.2 °F /  14 °C 30.25in /  1024.3hPa West 2.2mph /  3.5km/h 2.2mph /  3.5km/h 79% 0.00in /  0cm
13:41 63.3 °F /  17.4 °C 57.0 °F /  13.9 °C 30.25in /  1024.3hPa WSW 5.9mph /  9.5km/h 5.9mph /  9.5km/h 80% 0.00in /  0cm
13:46 63.0 °F /  17.2 °C 56.7 °F /  13.7 °C 30.25in /  1024.3hPa West 5.8mph /  9.3km/h 5.8mph /  9.3km/h 80% 0.00in /  0cm
13:51 62.4 °F /  16.9 °C 56.9 °F /  13.8 °C 30.25in /  1024.3hPa SE 4.6mph /  7.4km/h   82% 0.00in /  0cm
13:56 61.7 °F /  16.5 °C 57.5 °F /  14.2 °C 30.25in /  1024.3hPa SSE 1.2mph /  1.9km/h 1.2mph /  1.9km/h 86% 0.00in /  0cm
14:01 61.2 °F /  16.2 °C 57.6 °F /  14.2 °C 30.25in /  1024.3hPa WNW 3.5mph /  5.6km/h 3.5mph /  5.6km/h 88% 0.00in /  0cm
14:08 61.2 °F /  16.2 °C 57.6 °F /  14.2 °C 30.25in /  1024.3hPa West 3.5mph /  5.6km/h 3.5mph /  5.6km/h 88% 0.00in /  0cm
14:13 61.3 °F /  16.3 °C 58.4 °F /  14.7 °C 30.25in /  1024.3hPa West 1.2mph /  1.9km/h 1.2mph /  1.9km/h 90% 0.00in /  0cm
14:18 61.5 °F /  16.4 °C 58.9 °F /  14.9 °C 30.25in /  1024.3hPa WSW 0.5mph /  0.8km/h 0.5mph /  0.8km/h 91% 0.00in /  0cm
14:23 62.4 °F /  16.9 °C 60.1 °F /  15.6 °C 30.25in /  1024.3hPa Calm     92% 0.00in /  0cm
14:28 63.1 °F /  17.3 °C 60.5 °F /  15.8 °C 30.26in /  1024.6hPa Calm     91% 0.00in /  0cm
14:33 63.1 °F /  17.3 °C 60.2 °F /  15.7 °C 30.25in /  1024.3hPa SE 3.5mph /  5.6km/h   90% 0.00in /  0cm
14:38 63.5 °F /  17.5 °C 60.2 °F /  15.7 °C 30.26in /  1024.6hPa WSW 1.2mph /  1.9km/h   89% 0.00in /  0cm
14:43 63.5 °F /  17.5 °C 59.9 °F /  15.5 °C 30.26in /  1024.6hPa Calm     88% 0.00in /  0cm
14:48 63.9 °F /  17.7 °C 59.6 °F /  15.3 °C 30.26in /  1024.6hPa NW 4.6mph /  7.4km/h 4.6mph /  7.4km/h 86% 0.00in /  0cm
14:53 64.0 °F /  17.8 °C 59.8 °F /  15.4 °C 30.26in /  1024.6hPa Calm     86% 0.00in /  0cm
14:58 64.6 °F /  18.1 °C 59.6 °F /  15.3 °C 30.25in /  1024.3hPa West 5.9mph /  9.5km/h 5.9mph /  9.5km/h 84% 0.00in /  0cm
15:03 65.1 °F /  18.4 °C 59.5 °F /  15.3 °C 30.26in /  1024.6hPa WSW 6.9mph /  11.1km/h 6.9mph /  11.1km/h 82% 0.00in /  0cm
15:09 65.3 °F /  18.5 °C 59.0 °F /  15 °C 30.26in /  1024.6hPa SW 3.7mph /  6km/h 3.7mph /  6km/h 80% 0.00in /  0cm
15:14 65.5 °F /  18.6 °C 59.8 °F /  15.4 °C 30.26in /  1024.6hPa WNW 6.3mph /  10.1km/h 6.3mph /  10.1km/h 82% 0.00in /  0cm
Wether-Above
Compliments of Weather Underground
Welcome to Weather-Above
Cheddleton weather station supplies various organisations with data from our weather station one of them is the weather Underground this information displayed here is coming from the weather Underground server 

If any information is used please acknowledge the source to www weather-above.com or weather Underground